sensor_id;sensor_type;location;lat;lon;timestamp;temperature;humidity
43963;DHT22;29622;45.534;9.242;2024-02-23T00:02:39;17.20;52.00
43963;DHT22;29622;45.534;9.242;2024-02-23T00:12:42;17.90;51.20
43963;DHT22;29622;45.534;9.242;2024-02-23T00:22:48;17.90;51.30
43963;DHT22;29622;45.534;9.242;2024-02-23T00:32:49;17.60;51.50
43963;DHT22;29622;45.534;9.242;2024-02-23T00:42:56;17.70;51.50
43963;DHT22;29622;45.534;9.242;2024-02-23T00:52:57;17.50;51.60
43963;DHT22;29622;45.534;9.242;2024-02-23T01:03:05;17.30;51.90
43963;DHT22;29622;45.534;9.242;2024-02-23T01:13:06;17.70;51.20
43963;DHT22;29622;45.534;9.242;2024-02-23T01:23:07;17.60;51.10
43963;DHT22;29622;45.534;9.242;2024-02-23T01:33:11;17.50;51.10
43963;DHT22;29622;45.534;9.242;2024-02-23T01:43:56;17.40;51.30
43963;DHT22;29622;45.534;9.242;2024-02-23T01:53:57;17.20;51.30
43963;DHT22;29622;45.534;9.242;2024-02-23T02:04:01;17.00;51.40
43963;DHT22;29622;45.534;9.242;2024-02-23T02:14:05;17.00;51.10
43963;DHT22;29622;45.534;9.242;2024-02-23T02:24:13;16.40;51.80
43963;DHT22;29622;45.534;9.242;2024-02-23T02:34:15;15.90;52.10
43963;DHT22;29622;45.534;9.242;2024-02-23T02:44:16;15.40;52.30
43963;DHT22;29622;45.534;9.242;2024-02-23T02:54:17;15.60;53.10
43963;DHT22;29622;45.534;9.242;2024-02-23T03:04:19;16.10;52.00
43963;DHT22;29622;45.534;9.242;2024-02-23T03:14:20;16.00;52.10
43963;DHT22;29622;45.534;9.242;2024-02-23T03:24:21;16.20;52.00
43963;DHT22;29622;45.534;9.242;2024-02-23T03:34:23;16.10;52.00
43963;DHT22;29622;45.534;9.242;2024-02-23T03:44:23;15.40;52.00
43963;DHT22;29622;45.534;9.242;2024-02-23T03:54:44;15.30;52.70
43963;DHT22;29622;45.534;9.242;2024-02-23T04:04:50;15.70;51.50
43963;DHT22;29622;45.534;9.242;2024-02-23T04:15:37;15.30;52.50
43963;DHT22;29622;45.534;9.242;2024-02-23T04:25:44;15.90;52.10
43963;DHT22;29622;45.534;9.242;2024-02-23T04:47:07;15.70;52.00
43963;DHT22;29622;45.534;9.242;2024-02-23T05:20:22;15.70;52.50
43963;DHT22;29622;45.534;9.242;2024-02-23T05:50:24;16.20;52.20
43963;DHT22;29622;45.534;9.242;2024-02-23T06:20:34;14.50;53.00
43963;DHT22;29622;45.534;9.242;2024-02-23T06:50:36;14.10;53.60
43963;DHT22;29622;45.534;9.242;2024-02-23T07:20:37;14.00;54.50
43963;DHT22;29622;45.534;9.242;2024-02-23T08:07:44;14.30;53.30
43963;DHT22;29622;45.534;9.242;2024-02-23T10:30:55;13.60;54.00
43963;DHT22;29622;45.534;9.242;2024-02-23T11:30:56;15.70;52.70
43963;DHT22;29622;45.534;9.242;2024-02-23T12:31:02;15.80;53.10
43963;DHT22;29622;45.534;9.242;2024-02-23T13:24:45;16.70;51.40
43963;DHT22;29622;45.534;9.242;2024-02-23T13:44:52;16.10;52.20
43963;DHT22;29622;45.534;9.242;2024-02-23T14:04:53;17.60;50.70
43963;DHT22;29622;45.534;9.242;2024-02-23T14:25:07;18.30;51.50
43963;DHT22;29622;45.534;9.242;2024-02-23T14:45:09;18.50;50.00
43963;DHT22;29622;45.534;9.242;2024-02-23T15:05:10;19.60;50.10
43963;DHT22;29622;45.534;9.242;2024-02-23T15:25:11;19.40;49.80
43963;DHT22;29622;45.534;9.242;2024-02-23T15:45:13;18.90;49.10
43963;DHT22;29622;45.534;9.242;2024-02-23T16:05:15;16.30;50.60
43963;DHT22;29622;45.534;9.242;2024-02-23T16:25:16;15.30;51.20
43963;DHT22;29622;45.534;9.242;2024-02-23T17:05:45;14.80;51.60
43963;DHT22;29622;45.534;9.242;2024-02-23T17:25:47;14.60;51.90
43963;DHT22;29622;45.534;9.242;2024-02-23T17:45:48;14.70;52.20
43963;DHT22;29622;45.534;9.242;2024-02-23T18:05:49;14.90;53.30
43963;DHT22;29622;45.534;9.242;2024-02-23T18:25:49;15.30;52.60
43963;DHT22;29622;45.534;9.242;2024-02-23T18:45:50;14.60;52.80
43963;DHT22;29622;45.534;9.242;2024-02-23T19:05:53;13.80;53.20
43963;DHT22;29622;45.534;9.242;2024-02-23T19:26:17;14.10;53.30
43963;DHT22;29622;45.534;9.242;2024-02-23T19:46:27;13.70;53.60
43963;DHT22;29622;45.534;9.242;2024-02-23T20:06:30;13.60;53.50
43963;DHT22;29622;45.534;9.242;2024-02-23T20:26:31;13.60;54.30
43963;DHT22;29622;45.534;9.242;2024-02-23T20:46:32;14.80;53.40
43963;DHT22;29622;45.534;9.242;2024-02-23T21:06:34;13.50;54.30
43963;DHT22;29622;45.534;9.242;2024-02-23T21:26:37;13.00;54.30
43963;DHT22;29622;45.534;9.242;2024-02-23T21:46:39;12.90;53.80
43963;DHT22;29622;45.534;9.242;2024-02-23T22:06:40;12.30;54.30
43963;DHT22;29622;45.534;9.242;2024-02-23T22:26:50;11.90;54.20
43963;DHT22;29622;45.534;9.242;2024-02-23T22:46:51;11.30;54.70
43963;DHT22;29622;45.534;9.242;2024-02-23T23:06:55;11.10;54.60
43963;DHT22;29622;45.534;9.242;2024-02-23T23:47:52;10.00;55.30
